createdAt,value
2022-11-28T00:01:31.331Z,5.15
2022-11-28T00:04:00.742Z,5.20
2022-11-28T00:06:29.177Z,5.15
2022-11-28T00:08:59.198Z,5.16
2022-11-28T00:11:27.535Z,5.09
2022-11-28T00:13:55.721Z,5.11
2022-11-28T00:16:24.531Z,5.13
2022-11-28T00:18:53.775Z,5.09
2022-11-28T00:21:23.994Z,5.05
2022-11-28T00:23:52.533Z,5.07
2022-11-28T00:26:22.824Z,5.04
2022-11-28T00:28:50.752Z,5.03
2022-11-28T00:31:20.318Z,5.02
2022-11-28T00:33:48.545Z,4.99
2022-11-28T00:36:16.576Z,4.97
2022-11-28T00:38:46.090Z,5.03
2022-11-28T00:41:15.381Z,4.92
2022-11-28T00:43:44.241Z,5.05
2022-11-28T00:46:13.669Z,4.98
2022-11-28T00:48:42.121Z,4.99
2022-11-28T00:51:11.841Z,5.00
2022-11-28T00:53:42.409Z,5.04
2022-11-28T00:56:13.089Z,4.97
2022-11-28T00:58:41.270Z,4.99
2022-11-28T01:01:10.914Z,4.99
2022-11-28T01:03:39.584Z,4.88
2022-11-28T01:06:08.166Z,4.86
2022-11-28T01:08:36.236Z,4.86
2022-11-28T01:11:04.369Z,4.81
2022-11-28T01:13:33.737Z,4.94
2022-11-28T01:16:01.709Z,4.89
2022-11-28T01:18:29.656Z,4.89
2022-11-28T01:20:57.474Z,4.91
2022-11-28T01:23:25.297Z,4.89
2022-11-28T01:25:53.170Z,4.97
2022-11-28T01:28:21.153Z,4.91
2022-11-28T01:30:50.448Z,4.97
2022-11-28T01:33:18.372Z,5.00
2022-11-28T01:35:55.579Z,4.98
2022-11-28T01:38:23.528Z,5.06
2022-11-28T01:40:52.052Z,4.97
2022-11-28T01:43:20.232Z,5.00
2022-11-28T01:45:48.292Z,5.07
2022-11-28T01:48:21.981Z,5.08
2022-11-28T01:50:51.397Z,5.13
2022-11-28T01:53:19.419Z,5.17
2022-11-28T01:55:50.040Z,5.15
2022-11-28T01:58:18.175Z,5.18
2022-11-28T02:00:46.208Z,5.26
2022-11-28T02:03:19.580Z,5.24
2022-11-28T02:05:48.784Z,5.22
2022-11-28T02:08:16.701Z,5.19
2022-11-28T02:10:57.277Z,5.17
2022-11-28T02:13:35.230Z,5.12
2022-11-28T02:16:55.209Z,5.15
2022-11-28T02:19:47.675Z,5.17
2022-11-28T02:22:18.619Z,5.19
2022-11-28T02:25:12.450Z,5.13
2022-11-28T02:28:00.098Z,5.27
2022-11-28T02:30:30.585Z,5.12
2022-11-28T02:33:08.540Z,5.19
2022-11-28T02:35:41.862Z,5.12
2022-11-28T02:38:15.329Z,5.13
2022-11-28T02:40:50.551Z,5.23
2022-11-28T02:43:23.326Z,5.19
2022-11-28T02:45:56.497Z,5.20
2022-11-28T02:48:28.736Z,5.15
2022-11-28T02:51:02.472Z,5.14
2022-11-28T02:53:32.279Z,5.12
2022-11-28T02:56:00.699Z,5.12
2022-11-28T02:58:28.614Z,5.12
2022-11-28T03:00:56.718Z,5.17
2022-11-28T03:03:51.031Z,5.09
2022-11-28T03:06:25.485Z,5.13
2022-11-28T03:09:02.392Z,5.18
2022-11-28T03:11:42.589Z,5.12
2022-11-28T03:14:14.956Z,5.12
2022-11-28T03:16:47.556Z,5.06
2022-11-28T03:19:21.734Z,5.03
2022-11-28T03:21:54.076Z,5.15
2022-11-28T03:24:26.196Z,5.20
2022-11-28T03:26:57.190Z,5.16
2022-11-28T03:29:31.796Z,5.07
2022-11-28T03:32:01.640Z,5.06
2022-11-28T03:34:33.977Z,5.02
2022-11-28T03:37:04.804Z,5.05
2022-11-28T03:39:36.427Z,5.12
2022-11-28T03:42:07.100Z,5.08
2022-11-28T03:44:39.624Z,5.13
2022-11-28T03:47:08.410Z,5.04
2022-11-28T03:49:39.412Z,5.02
2022-11-28T03:52:11.374Z,5.08
2022-11-28T03:54:43.860Z,5.07
2022-11-28T03:57:16.206Z,5.13
2022-11-28T03:59:46.151Z,5.16
2022-11-28T04:02:19.833Z,5.21
2022-11-28T04:04:55.229Z,5.11
2022-11-28T04:07:28.512Z,5.11
2022-11-28T04:10:01.273Z,5.12
2022-11-28T04:12:37.083Z,5.15
2022-11-28T04:15:09.714Z,5.10
2022-11-28T04:17:39.142Z,5.10
2022-11-28T04:20:13.505Z,5.06
2022-11-28T04:22:45.757Z,5.10
2022-11-28T04:25:15.674Z,5.08
2022-11-28T04:27:46.227Z,5.07
2022-11-28T04:30:14.561Z,5.08
2022-11-28T04:32:48.033Z,5.17
2022-11-28T04:35:21.185Z,5.19
2022-11-28T04:37:49.436Z,5.09
2022-11-28T04:40:19.021Z,4.99
2022-11-28T04:42:52.942Z,4.99
2022-11-28T04:45:25.045Z,5.06
2022-11-28T04:47:53.032Z,5.11
2022-11-28T04:50:23.073Z,5.07
2022-11-28T04:52:55.630Z,5.07
2022-11-28T04:55:28.681Z,5.04
2022-11-28T04:57:57.883Z,5.00
2022-11-28T05:00:27.058Z,5.00
2022-11-28T05:02:55.753Z,5.10
2022-11-28T05:05:28.363Z,5.11
2022-11-28T05:07:56.274Z,5.19
2022-11-28T05:10:24.218Z,5.12
2022-11-28T05:12:52.181Z,5.17
2022-11-28T05:15:20.133Z,5.24
2022-11-28T05:17:48.287Z,5.16
2022-11-28T05:20:16.330Z,5.14
2022-11-28T05:22:45.558Z,5.13
2022-11-28T05:25:13.477Z,5.12
2022-11-28T05:27:41.358Z,5.15
2022-11-28T05:30:10.795Z,5.24
2022-11-28T05:32:38.712Z,5.19
2022-11-28T05:35:07.377Z,5.21
2022-11-28T05:37:35.652Z,5.17
2022-11-28T05:40:06.219Z,5.09
2022-11-28T05:42:34.354Z,5.11
2022-11-28T05:45:02.349Z,5.06
2022-11-28T05:47:31.255Z,5.08
2022-11-28T05:49:59.301Z,5.16
2022-11-28T05:52:29.547Z,5.10
2022-11-28T05:54:57.450Z,5.15
2022-11-28T05:57:26.853Z,5.16
2022-11-28T05:59:54.772Z,5.08
2022-11-28T06:02:22.691Z,5.08
2022-11-28T06:04:50.684Z,5.09
2022-11-28T06:07:20.233Z,5.04
2022-11-28T06:09:48.239Z,5.18
2022-11-28T06:12:16.128Z,5.13
2022-11-28T06:14:45.336Z,5.12
2022-11-28T06:17:13.171Z,5.21
2022-11-28T06:19:41.478Z,5.11
2022-11-28T06:22:10.513Z,5.15
2022-11-28T06:24:38.355Z,5.20
2022-11-28T06:27:06.247Z,5.15
2022-11-28T06:29:34.268Z,5.21
2022-11-28T06:32:03.570Z,5.15
2022-11-28T06:34:32.388Z,5.20
2022-11-28T06:37:00.259Z,5.22
2022-11-28T06:39:28.175Z,5.25
2022-11-28T06:41:56.046Z,5.24
2022-11-28T06:44:23.939Z,5.24
2022-11-28T06:46:51.828Z,5.19
2022-11-28T06:49:21.078Z,5.22
2022-11-28T06:51:49.004Z,5.25
2022-11-28T06:54:16.845Z,5.24
2022-11-28T06:56:44.755Z,5.28
2022-11-28T06:59:13.303Z,5.27
2022-11-28T07:01:41.358Z,5.21
2022-11-28T07:04:10.322Z,5.33
2022-11-28T07:06:39.547Z,5.26
2022-11-28T07:09:07.453Z,5.30
2022-11-28T07:11:35.379Z,5.16
2022-11-28T07:14:03.870Z,5.23
2022-11-28T07:16:33.536Z,5.26
2022-11-28T07:19:01.593Z,5.36
2022-11-28T07:21:30.632Z,5.25
2022-11-28T07:24:00.982Z,5.32
2022-11-28T07:26:28.928Z,5.31
2022-11-28T07:28:58.220Z,5.28
2022-11-28T07:31:31.703Z,5.44
2022-11-28T07:34:01.449Z,5.37
2022-11-28T07:36:30.304Z,5.36
2022-11-28T07:39:01.048Z,5.32
2022-11-28T07:41:29.926Z,5.37
2022-11-28T07:43:59.266Z,5.35
2022-11-28T07:46:30.337Z,5.39
2022-11-28T07:48:58.477Z,5.34
2022-11-28T07:51:27.812Z,5.40
2022-11-28T07:53:56.137Z,5.37
2022-11-28T07:56:35.121Z,5.40
2022-11-28T07:59:13.110Z,5.42
2022-11-28T08:01:41.172Z,5.47
2022-11-28T08:04:10.568Z,5.52
2022-11-28T08:06:39.837Z,5.49
2022-11-28T08:09:08.043Z,5.47
2022-11-28T08:11:37.717Z,5.53
2022-11-28T08:14:06.201Z,5.52
2022-11-28T08:16:34.100Z,5.52
2022-11-28T08:19:02.723Z,5.47
2022-11-28T08:21:32.991Z,5.52
2022-11-28T08:24:02.264Z,5.52
2022-11-28T08:26:31.812Z,5.59
2022-11-28T08:29:01.391Z,5.65
2022-11-28T08:31:30.710Z,5.61
2022-11-28T08:33:59.890Z,5.52
2022-11-28T08:36:29.535Z,5.52
2022-11-28T08:39:16.506Z,5.53
2022-11-28T08:41:46.149Z,5.49
2022-11-28T08:44:16.148Z,5.51
2022-11-28T08:46:44.037Z,5.63
2022-11-28T08:49:11.848Z,5.45
2022-11-28T08:51:39.790Z,5.41
2022-11-28T08:54:07.670Z,5.46
2022-11-28T08:56:35.879Z,5.51
2022-11-28T08:59:03.760Z,5.53
2022-11-28T09:01:33.074Z,5.60
2022-11-28T09:04:01.661Z,5.63
2022-11-28T09:06:29.702Z,5.51
2022-11-28T09:08:57.530Z,5.57
2022-11-28T09:11:25.600Z,5.56
2022-11-28T09:13:53.471Z,5.51
2022-11-28T09:16:21.337Z,5.59
2022-11-28T09:18:51.093Z,5.66
2022-11-28T09:21:18.940Z,5.62
2022-11-28T09:23:46.877Z,5.75
2022-11-28T09:26:16.696Z,5.66
2022-11-28T09:28:44.852Z,5.62
2022-11-28T09:31:13.871Z,5.66
2022-11-28T09:33:42.576Z,5.70
2022-11-28T09:36:16.297Z,5.57
2022-11-28T09:38:44.571Z,5.64
2022-11-28T09:41:29.668Z,5.66
2022-11-28T09:43:59.740Z,5.66
2022-11-28T09:46:30.291Z,5.64
2022-11-28T09:49:01.062Z,5.69
2022-11-28T09:51:34.667Z,5.67
2022-11-28T09:54:07.165Z,5.73
2022-11-28T09:56:35.327Z,5.76
2022-11-28T09:59:04.146Z,5.74
2022-11-28T10:01:36.942Z,5.84
2022-11-28T10:04:07.570Z,5.89
2022-11-28T10:06:41.476Z,5.71
2022-11-28T10:09:23.705Z,5.68
2022-11-28T10:12:02.109Z,5.66
2022-11-28T10:14:52.633Z,5.69
2022-11-28T10:17:26.129Z,5.71
2022-11-28T10:19:56.775Z,5.78
2022-11-28T10:22:30.859Z,5.74
2022-11-28T10:25:02.615Z,5.66
2022-11-28T10:27:34.289Z,5.61
2022-11-28T10:30:05.235Z,5.69
2022-11-28T10:32:36.358Z,5.74
2022-11-28T10:35:07.663Z,5.73
2022-11-28T10:37:39.772Z,5.87
2022-11-28T10:40:18.285Z,5.90
2022-11-28T10:42:50.692Z,5.90
2022-11-28T10:45:23.542Z,5.90
2022-11-28T10:48:29.591Z,5.90
2022-11-28T10:50:55.685Z,5.86
2022-11-28T10:53:34.029Z,5.91
2022-11-28T10:56:11.567Z,5.99
2022-11-28T10:58:43.926Z,6.09
2022-11-28T11:01:12.418Z,6.09
2022-11-28T11:03:40.865Z,6.05
2022-11-28T11:06:08.976Z,6.16
2022-11-28T11:08:39.626Z,6.12
2022-11-28T11:11:09.783Z,6.33
2022-11-28T11:13:58.163Z,6.35
2022-11-28T11:16:26.172Z,6.39
2022-11-28T11:18:55.542Z,6.40
2022-11-28T11:21:25.265Z,6.60
2022-11-28T11:24:15.886Z,6.76
2022-11-28T11:26:45.331Z,6.86
2022-11-28T11:29:22.233Z,6.64
2022-11-28T11:31:52.409Z,6.71
2022-11-28T11:34:21.557Z,6.73
2022-11-28T11:36:49.505Z,6.79
2022-11-28T11:39:21.549Z,6.75
2022-11-28T11:41:50.235Z,6.57
2022-11-28T11:44:34.188Z,6.53
2022-11-28T11:47:03.950Z,6.55
2022-11-28T11:49:33.777Z,6.53
2022-11-28T11:52:04.477Z,6.52
2022-11-28T11:54:34.094Z,6.64
2022-11-28T11:57:30.603Z,6.67
2022-11-28T11:59:51.886Z,6.56
2022-11-28T12:02:23.447Z,6.52
2022-11-28T12:04:55.503Z,6.36
2022-11-28T12:07:29.021Z,6.47
2022-11-28T12:10:03.028Z,6.46
2022-11-28T12:12:36.510Z,6.48
2022-11-28T12:15:05.107Z,6.50
2022-11-28T12:17:50.056Z,6.50
2022-11-28T12:20:45.143Z,6.47
2022-11-28T12:23:29.002Z,6.42
2022-11-28T12:26:02.831Z,6.40
2022-11-28T12:28:39.274Z,6.46
2022-11-28T12:31:13.853Z,6.48
2022-11-28T12:33:51.502Z,6.47
2022-11-28T12:36:26.854Z,6.45
2022-11-28T12:39:14.870Z,6.37
2022-11-28T12:42:02.762Z,6.38
2022-11-28T12:44:43.602Z,6.52
2022-11-28T12:47:19.412Z,6.44
2022-11-28T12:49:54.089Z,6.31
2022-11-28T12:52:31.566Z,6.29
2022-11-28T12:55:08.740Z,6.28
2022-11-28T12:57:42.568Z,6.41
2022-11-28T13:00:14.264Z,6.44
2022-11-28T13:02:51.249Z,6.37
2022-11-28T13:05:26.781Z,6.32
2022-11-28T13:08:11.886Z,6.28
2022-11-28T13:10:43.193Z,6.26
2022-11-28T13:13:15.243Z,6.34
2022-11-28T13:15:56.316Z,6.24
2022-11-28T13:18:33.027Z,6.28
2022-11-28T13:21:04.727Z,6.22
2022-11-28T13:23:35.706Z,6.37
2022-11-28T13:26:07.502Z,6.27
2022-11-28T13:28:39.697Z,6.17
2022-11-28T13:31:12.401Z,6.15
2022-11-28T13:33:48.793Z,6.10
2022-11-28T13:39:16.735Z,6.20
2022-11-28T13:44:45.034Z,6.21
2022-11-28T13:47:28.534Z,6.24
2022-11-28T13:50:14.083Z,6.06
2022-11-28T13:52:43.430Z,5.97
2022-11-28T13:55:38.953Z,5.97
2022-11-28T13:58:18.408Z,5.98
2022-11-28T14:01:03.345Z,5.84
2022-11-28T14:03:32.319Z,5.89
2022-11-28T14:06:01.890Z,5.82
2022-11-28T14:08:33.094Z,5.86
2022-11-28T14:11:09.452Z,5.88
2022-11-28T14:13:52.347Z,5.74
2022-11-28T14:16:29.911Z,5.67
2022-11-28T14:19:06.794Z,5.60
2022-11-28T14:21:48.678Z,5.57
2022-11-28T14:24:21.737Z,5.64
2022-11-28T14:26:58.666Z,5.59
2022-11-28T14:29:30.373Z,5.58
2022-11-28T14:32:30.633Z,5.66
2022-11-28T14:34:49.929Z,5.50
2022-11-28T14:37:42.781Z,5.57
2022-11-28T14:40:56.511Z,5.50
2022-11-28T14:43:29.204Z,5.53
2022-11-28T14:46:29.397Z,5.60
2022-11-28T14:49:21.744Z,5.58
2022-11-28T14:52:40.580Z,5.51
2022-11-28T14:55:22.522Z,5.45
2022-11-28T14:57:59.492Z,5.39
2022-11-28T15:00:29.598Z,5.44
2022-11-28T15:03:13.922Z,5.51
2022-11-28T15:05:47.932Z,5.40
2022-11-28T15:08:36.057Z,5.45
2022-11-28T15:11:15.786Z,5.36
2022-11-28T15:13:55.427Z,5.34
2022-11-28T15:16:24.097Z,5.24
2022-11-28T15:18:54.251Z,5.28
2022-11-28T15:21:24.026Z,5.30
2022-11-28T15:23:52.660Z,5.26
2022-11-28T15:26:22.627Z,5.36
2022-11-28T15:28:50.557Z,5.26
2022-11-28T15:31:23.426Z,5.25
2022-11-28T15:33:51.958Z,5.13
2022-11-28T15:36:27.473Z,5.21
2022-11-28T15:38:55.682Z,5.10
2022-11-28T15:41:24.248Z,5.12
2022-11-28T15:43:52.709Z,5.08
2022-11-28T15:46:31.970Z,5.15
2022-11-28T15:49:01.436Z,5.08
2022-11-28T15:51:32.689Z,5.11
2022-11-28T15:54:03.309Z,5.05
2022-11-28T15:56:31.317Z,5.12
2022-11-28T15:58:59.251Z,5.04
2022-11-28T16:01:28.301Z,5.11
2022-11-28T16:04:00.277Z,5.12
2022-11-28T16:06:33.546Z,5.07
2022-11-28T16:09:04.695Z,5.09
2022-11-28T16:11:36.309Z,4.97
2022-11-28T16:14:09.491Z,5.05
2022-11-28T16:16:39.170Z,5.03
2022-11-28T16:19:09.348Z,5.08
2022-11-28T16:21:41.706Z,5.02
2022-11-28T16:24:18.569Z,5.08
2022-11-28T16:26:55.272Z,5.04
2022-11-28T16:29:25.058Z,4.97
2022-11-28T16:31:52.988Z,4.96
2022-11-28T16:34:49.138Z,4.94
2022-11-28T16:37:22.145Z,4.96
2022-11-28T16:39:59.346Z,4.96
2022-11-28T16:42:27.468Z,4.83
2022-11-28T16:44:55.496Z,4.91
2022-11-28T16:47:28.476Z,4.86
2022-11-28T16:50:11.229Z,4.92
2022-11-28T16:52:57.629Z,4.90
2022-11-28T16:55:46.192Z,4.91
2022-11-28T16:58:19.716Z,4.87
2022-11-28T17:00:53.461Z,4.91
2022-11-28T17:03:47.975Z,4.87
2022-11-28T17:06:19.084Z,4.82
2022-11-28T17:08:48.674Z,4.82
2022-11-28T17:11:18.411Z,4.90
2022-11-28T17:13:46.353Z,4.81
2022-11-28T17:16:19.095Z,4.75
2022-11-28T17:18:47.658Z,4.77
2022-11-28T17:21:17.139Z,4.80
2022-11-28T17:23:45.376Z,4.81
2022-11-28T17:26:14.655Z,4.87
2022-11-28T17:28:42.658Z,4.80
2022-11-28T17:31:12.800Z,4.71
2022-11-28T17:33:44.615Z,4.65
2022-11-28T17:36:13.319Z,4.68
2022-11-28T17:38:41.191Z,4.76
2022-11-28T17:41:14.633Z,4.61
2022-11-28T17:43:43.031Z,4.62
2022-11-28T17:46:11.359Z,4.75
2022-11-28T17:48:39.277Z,4.68
2022-11-28T17:51:07.227Z,4.79
2022-11-28T17:53:35.391Z,4.65
2022-11-28T17:56:03.585Z,4.65
2022-11-28T17:58:33.293Z,4.68
2022-11-28T18:01:01.364Z,4.65
2022-11-28T18:03:29.918Z,4.66
2022-11-28T18:05:58.035Z,4.68
2022-11-28T18:08:26.200Z,4.61
2022-11-28T18:11:04.103Z,4.71
2022-11-28T18:13:33.537Z,4.68
2022-11-28T18:16:01.650Z,4.73
2022-11-28T18:18:30.417Z,4.55
2022-11-28T18:20:58.447Z,4.65
2022-11-28T18:23:26.307Z,4.69
2022-11-28T18:25:54.093Z,4.65
2022-11-28T18:28:22.082Z,4.65
2022-11-28T18:30:51.336Z,4.69
2022-11-28T18:33:19.459Z,4.69
2022-11-28T18:35:47.332Z,4.56
2022-11-28T18:38:15.321Z,4.59
2022-11-28T18:40:43.138Z,4.54
2022-11-28T18:43:11.289Z,4.47
2022-11-28T18:45:40.341Z,4.54
2022-11-28T18:48:11.932Z,4.56
2022-11-28T18:50:39.833Z,4.57
2022-11-28T18:53:07.784Z,4.55
2022-11-28T18:55:35.653Z,4.53
2022-11-28T18:58:03.500Z,4.52
2022-11-28T19:00:31.340Z,4.51
2022-11-28T19:02:59.469Z,4.42
2022-11-28T19:05:28.727Z,4.50
2022-11-28T19:07:57.438Z,4.43
2022-11-28T19:10:25.325Z,4.54
2022-11-28T19:12:53.240Z,4.45
2022-11-28T19:15:21.368Z,4.50
2022-11-28T19:17:49.310Z,4.43
2022-11-28T19:20:18.260Z,4.46
2022-11-28T19:22:47.715Z,4.55
2022-11-28T19:25:15.577Z,4.48
2022-11-28T19:27:43.961Z,4.37
2022-11-28T19:30:13.300Z,4.42
2022-11-28T19:32:41.204Z,4.41
2022-11-28T19:35:09.874Z,4.45
2022-11-28T19:37:43.766Z,4.31
2022-11-28T19:40:14.394Z,4.43
2022-11-28T19:42:42.574Z,4.29
2022-11-28T19:45:11.730Z,4.42
2022-11-28T19:47:39.906Z,4.42
2022-11-28T19:50:09.636Z,4.37
2022-11-28T19:52:37.681Z,4.50
2022-11-28T19:55:06.170Z,4.34
2022-11-28T19:57:38.014Z,4.37
2022-11-28T20:00:07.232Z,4.32
2022-11-28T20:02:41.884Z,4.23
2022-11-28T20:05:10.604Z,4.46
2022-11-28T20:07:38.645Z,4.34
2022-11-28T20:10:08.009Z,4.34
2022-11-28T20:12:37.787Z,4.36
2022-11-28T20:15:06.107Z,4.36
2022-11-28T20:17:34.005Z,4.32
2022-11-28T20:20:02.261Z,4.36
2022-11-28T20:22:30.781Z,4.25
2022-11-28T20:24:58.717Z,4.30
2022-11-28T20:27:26.687Z,4.31
2022-11-28T20:29:56.070Z,4.29
2022-11-28T20:32:24.128Z,4.08
2022-11-28T20:34:52.018Z,4.14
2022-11-28T20:37:19.960Z,4.09
2022-11-28T20:39:47.805Z,4.20
2022-11-28T20:42:15.868Z,4.17
2022-11-28T20:44:43.742Z,4.11
2022-11-28T20:47:13.819Z,4.09
2022-11-28T20:49:41.941Z,4.24
2022-11-28T20:52:10.004Z,4.14
2022-11-28T20:54:37.981Z,4.16
2022-11-28T20:57:21.000Z,4.12
2022-11-28T20:59:49.853Z,4.19
2022-11-28T21:02:19.183Z,4.18
2022-11-28T21:04:47.077Z,4.16
2022-11-28T21:07:15.077Z,4.14
2022-11-28T21:09:43.541Z,4.10
2022-11-28T21:12:13.532Z,4.11
2022-11-28T21:14:43.390Z,3.99
2022-11-28T21:17:11.208Z,4.10
2022-11-28T21:19:40.508Z,4.11
2022-11-28T21:22:08.579Z,4.18
2022-11-28T21:24:36.468Z,4.04
2022-11-28T21:27:04.465Z,4.06
2022-11-28T21:29:32.451Z,4.11
2022-11-28T21:32:00.456Z,4.03
2022-11-28T21:34:28.347Z,4.02
2022-11-28T21:36:57.535Z,4.11
2022-11-28T21:39:25.381Z,4.11
2022-11-28T21:41:53.245Z,4.03
2022-11-28T21:44:21.080Z,4.00
2022-11-28T21:46:50.028Z,4.01
2022-11-28T21:49:18.090Z,4.05
2022-11-28T21:51:46.161Z,4.05
2022-11-28T21:54:15.453Z,3.96
2022-11-28T21:56:45.821Z,3.93
2022-11-28T21:59:13.880Z,3.94
2022-11-28T22:01:42.054Z,3.98
2022-11-28T22:04:11.181Z,4.00
2022-11-28T22:06:40.290Z,3.93
2022-11-28T22:09:09.781Z,3.83
2022-11-28T22:11:40.772Z,3.97
2022-11-28T22:14:08.643Z,3.94
2022-11-28T22:16:36.693Z,3.86
2022-11-28T22:19:05.396Z,4.03
2022-11-28T22:21:55.964Z,3.92
2022-11-28T22:24:24.241Z,3.91
2022-11-28T22:26:54.154Z,3.89
2022-11-28T22:29:22.116Z,3.96
2022-11-28T22:31:50.129Z,3.90
2022-11-28T22:34:19.321Z,3.97
2022-11-28T22:36:47.255Z,3.95
2022-11-28T22:39:15.342Z,3.87
2022-11-28T22:41:43.406Z,3.94
2022-11-28T22:44:13.187Z,3.91
2022-11-28T22:46:41.026Z,4.00
2022-11-28T22:49:11.172Z,3.94
2022-11-28T22:51:39.781Z,3.91
2022-11-28T22:54:08.171Z,3.95
2022-11-28T22:56:36.097Z,3.96
2022-11-28T22:59:04.921Z,3.91
2022-11-28T23:01:35.476Z,3.90
2022-11-28T23:04:03.640Z,3.84
2022-11-28T23:06:33.515Z,3.88
2022-11-28T23:09:03.245Z,3.84
2022-11-28T23:11:33.093Z,3.80
2022-11-28T23:14:01.326Z,3.73
2022-11-28T23:16:30.815Z,3.68
2022-11-28T23:19:01.812Z,3.79
2022-11-28T23:21:32.364Z,3.70
2022-11-28T23:24:00.245Z,3.86
2022-11-28T23:26:30.203Z,3.77
2022-11-28T23:29:00.461Z,3.75
2022-11-28T23:31:30.514Z,3.67
2022-11-28T23:34:00.787Z,3.75
2022-11-28T23:36:31.022Z,3.72
2022-11-28T23:39:01.753Z,3.66
2022-11-28T23:41:30.601Z,3.73
2022-11-28T23:43:58.989Z,3.67
2022-11-28T23:46:27.699Z,3.70
2022-11-28T23:48:55.754Z,3.61
2022-11-28T23:51:26.562Z,3.57
2022-11-28T23:53:55.166Z,3.51
2022-11-28T23:56:24.755Z,3.57
2022-11-28T23:58:53.507Z,3.58
